createdAt,value
2019-01-08T00:02:25.842Z,98320.81
2019-01-08T00:04:55.645Z,98320.81
2019-01-08T00:07:26.333Z,98318.69
2019-01-08T00:09:56.118Z,98297.73
2019-01-08T00:12:26.041Z,98297.73
2019-01-08T00:14:55.976Z,98288.21
2019-01-08T00:17:25.777Z,98288.21
2019-01-08T00:19:55.403Z,98290.40
2019-01-08T00:22:25.137Z,98282.94
2019-01-08T00:24:54.831Z,98276.59
2019-01-08T00:27:24.706Z,98276.95
2019-01-08T00:29:54.415Z,98272.16
2019-01-08T00:32:24.223Z,98270.48
2019-01-08T00:34:54.042Z,98273.03
2019-01-08T00:37:23.744Z,98263.09
2019-01-08T00:39:53.523Z,98268.78
2019-01-08T00:42:24.972Z,98239.98
2019-01-08T00:44:54.674Z,98239.98
2019-01-08T00:47:24.401Z,98249.03
2019-01-08T00:49:54.523Z,98243.22
2019-01-08T00:52:25.846Z,98243.22
2019-01-08T00:54:55.707Z,98239.35
2019-01-08T00:57:25.434Z,98233.82
2019-01-08T00:59:55.144Z,98226.34
2019-01-08T01:02:24.935Z,98230.38
2019-01-08T01:04:54.717Z,98230.38
2019-01-08T01:07:24.550Z,98217.85
2019-01-08T01:09:54.786Z,98218.66
2019-01-08T01:12:25.467Z,98218.66
2019-01-08T01:14:55.247Z,98212.78
2019-01-08T01:17:25.617Z,98212.78
2019-01-08T01:19:55.789Z,98193.88
2019-01-08T01:22:26.056Z,98193.88
2019-01-08T01:24:55.884Z,98185.64
2019-01-08T01:27:25.576Z,98184.35
2019-01-08T01:29:55.315Z,98183.30
2019-01-08T01:32:25.047Z,98184.97
2019-01-08T01:34:54.769Z,98170.92
2019-01-08T01:37:24.395Z,98169.98
2019-01-08T01:39:54.228Z,98169.98
2019-01-08T01:42:24.045Z,98167.60
2019-01-08T01:44:54.795Z,98167.60
2019-01-08T01:47:24.729Z,98168.92
2019-01-08T01:49:54.654Z,98159.91
2019-01-08T01:52:24.529Z,98160.03
2019-01-08T01:54:54.336Z,98160.03
2019-01-08T01:57:24.064Z,98148.42
2019-01-08T01:59:53.818Z,98135.20
2019-01-08T02:02:23.636Z,98140.34
2019-01-08T02:04:54.733Z,98139.84
2019-01-08T02:07:24.977Z,98140.14
2019-01-08T02:09:54.709Z,98133.28
2019-01-08T02:12:24.324Z,98127.84
2019-01-08T02:14:54.062Z,98123.98
2019-01-08T02:17:23.901Z,98119.70
2019-01-08T02:19:53.702Z,98126.19
2019-01-08T02:22:23.659Z,98111.95
2019-01-08T02:24:53.432Z,98111.12
2019-01-08T02:27:23.268Z,98105.58
2019-01-08T02:29:53.080Z,98110.34
2019-01-08T02:32:23.015Z,98105.27
2019-01-08T02:34:52.722Z,98098.54
2019-01-08T02:37:22.520Z,98098.54
2019-01-08T02:39:52.255Z,98091.12
2019-01-08T02:42:21.869Z,98091.12
2019-01-08T02:44:51.623Z,98091.96
2019-01-08T02:47:21.379Z,98077.84
2019-01-08T02:49:51.335Z,98077.84
2019-01-08T02:52:21.596Z,98079.55
2019-01-08T02:54:51.269Z,98063.57
2019-01-08T02:57:20.979Z,98064.66
2019-01-08T02:59:50.698Z,98062.14
2019-01-08T03:02:20.415Z,98052.22
2019-01-08T03:04:51.966Z,98045.42
2019-01-08T03:07:21.655Z,98043.13
2019-01-08T03:09:51.385Z,98032.24
2019-01-08T03:12:21.021Z,98041.78
2019-01-08T03:14:50.744Z,98032.91
2019-01-08T03:17:21.051Z,98030.91
2019-01-08T03:19:50.917Z,98024.48
2019-01-08T03:22:20.636Z,98014.82
2019-01-08T03:24:50.368Z,98016.50
2019-01-08T03:27:20.027Z,98008.24
2019-01-08T03:29:49.718Z,98002.48
2019-01-08T03:32:19.395Z,98002.06
2019-01-08T03:34:49.117Z,97999.82
2019-01-08T03:37:18.937Z,97988.52
2019-01-08T03:39:48.734Z,97984.20
2019-01-08T03:42:18.474Z,97982.78
2019-01-08T03:44:48.177Z,97980.34
2019-01-08T03:47:17.905Z,97975.67
2019-01-08T03:49:47.525Z,97972.95
2019-01-08T03:52:17.415Z,97970.89
2019-01-08T03:54:47.189Z,97963.33
2019-01-08T03:57:16.991Z,97961.79
2019-01-08T03:59:46.672Z,97952.84
2019-01-08T04:02:16.587Z,97946.11
2019-01-08T04:04:46.300Z,97934.59
2019-01-08T04:07:16.084Z,97925.63
2019-01-08T04:09:46.162Z,97918.95
2019-01-08T04:12:15.816Z,97921.20
2019-01-08T04:14:45.543Z,97926.91
2019-01-08T04:17:15.338Z,97920.23
2019-01-08T04:19:44.970Z,97916.41
2019-01-08T04:22:14.777Z,97919.79
2019-01-08T04:24:44.511Z,97918.95
2019-01-08T04:27:14.222Z,97917.83
2019-01-08T04:29:50.399Z,97916.96
2019-01-08T04:32:18.000Z,97911.52
2019-01-08T04:34:47.709Z,97894.47
2019-01-08T04:37:17.453Z,97891.70
2019-01-08T04:39:47.295Z,97881.77
2019-01-08T04:42:16.995Z,97879.92
2019-01-08T04:44:46.717Z,97873.83
2019-01-08T04:47:16.540Z,97869.50
2019-01-08T04:49:46.318Z,97868.24
2019-01-08T04:52:16.105Z,97864.00
2019-01-08T04:54:45.924Z,97866.20
2019-01-08T04:57:16.131Z,97859.83
2019-01-08T04:59:46.372Z,97851.72
2019-01-08T05:02:16.201Z,97857.70
2019-01-08T05:04:45.921Z,97853.94
2019-01-08T05:07:15.702Z,97844.23
2019-01-08T05:09:45.591Z,97836.13
2019-01-08T05:12:15.353Z,97836.13
2019-01-08T05:14:45.053Z,97820.25
2019-01-08T05:17:14.812Z,97815.63
2019-01-08T05:19:44.647Z,97806.69
2019-01-08T05:22:14.796Z,97803.22
2019-01-08T05:24:44.480Z,97798.19
2019-01-08T05:27:15.277Z,97787.06
2019-01-08T05:29:45.037Z,97779.25
2019-01-08T05:32:14.749Z,97780.55
2019-01-08T05:34:44.562Z,97776.35
2019-01-08T05:37:14.330Z,97771.55
2019-01-08T05:39:44.181Z,97767.70
2019-01-08T05:42:13.981Z,97758.78
2019-01-08T05:44:43.704Z,97766.31
2019-01-08T05:47:13.305Z,97765.92
2019-01-08T05:49:43.112Z,97753.09
2019-01-08T05:52:12.886Z,97736.84
2019-01-08T05:54:42.468Z,97736.84
2019-01-08T05:57:12.093Z,97727.42
2019-01-08T05:59:41.843Z,97730.05
2019-01-08T06:02:11.604Z,97722.26
2019-01-08T06:04:41.576Z,97714.15
2019-01-08T06:07:11.982Z,97711.20
2019-01-08T06:09:41.666Z,97704.34
2019-01-08T06:12:11.490Z,97696.12
2019-01-08T06:14:41.322Z,97690.56
2019-01-08T06:17:11.096Z,97679.42
2019-01-08T06:19:40.880Z,97671.69
2019-01-08T06:22:10.675Z,97671.69
2019-01-08T06:24:40.492Z,97673.83
2019-01-08T06:27:10.276Z,97656.26
2019-01-08T06:29:40.034Z,97655.86
2019-01-08T06:32:09.845Z,97657.98
2019-01-08T06:34:39.685Z,97647.70
2019-01-08T06:37:09.334Z,97643.66
2019-01-08T06:39:39.059Z,97646.55
2019-01-08T06:42:08.734Z,97637.14
2019-01-08T06:44:38.279Z,97625.70
2019-01-08T06:47:08.347Z,97620.55
2019-01-08T06:49:38.071Z,97613.36
2019-01-08T06:52:08.006Z,97607.86
2019-01-08T06:54:37.829Z,97614.27
2019-01-08T06:57:07.500Z,97603.62
2019-01-08T06:59:37.327Z,97595.29
2019-01-08T07:02:07.185Z,97595.29
2019-01-08T07:04:37.059Z,97585.59
2019-01-08T07:07:06.784Z,97584.41
2019-01-08T07:09:36.626Z,97585.09
2019-01-08T07:12:06.405Z,97585.09
2019-01-08T07:14:36.147Z,97584.64
2019-01-08T07:17:06.005Z,97581.91
2019-01-08T07:19:35.722Z,97580.19
2019-01-08T07:22:05.465Z,97580.19
2019-01-08T07:24:35.240Z,97570.84
2019-01-08T07:27:04.932Z,97564.34
2019-01-08T07:29:34.722Z,97558.65
2019-01-08T07:32:04.459Z,97556.86
2019-01-08T07:34:34.554Z,97549.13
2019-01-08T07:37:04.427Z,97539.75
2019-01-08T07:39:34.114Z,97537.22
2019-01-08T07:42:03.854Z,97519.66
2019-01-08T07:44:33.590Z,97518.42
2019-01-08T07:47:03.319Z,97513.02
2019-01-08T07:49:33.243Z,97489.52
2019-01-08T07:52:02.976Z,97489.52
2019-01-08T07:54:32.757Z,97480.85
2019-01-08T07:57:02.560Z,97457.67
2019-01-08T07:59:32.279Z,97457.67
2019-01-08T08:02:02.026Z,97450.37
2019-01-08T08:04:31.818Z,97453.02
2019-01-08T08:07:01.612Z,97450.45
2019-01-08T08:09:31.472Z,97442.73
2019-01-08T08:12:01.247Z,97442.73
2019-01-08T08:14:30.985Z,97442.67
2019-01-08T08:17:01.273Z,97427.58
2019-01-08T08:19:31.083Z,97432.63
2019-01-08T08:22:00.826Z,97431.72
2019-01-08T08:24:30.645Z,97420.20
2019-01-08T08:27:00.452Z,97420.20
2019-01-08T08:29:30.609Z,97424.56
2019-01-08T08:32:00.470Z,97403.03
2019-01-08T08:34:30.218Z,97402.21
2019-01-08T08:36:59.899Z,97409.98
2019-01-08T08:39:29.775Z,97395.41
2019-01-08T08:41:59.654Z,97402.84
2019-01-08T08:44:29.370Z,97400.69
2019-01-08T08:46:59.204Z,97394.23
2019-01-08T08:49:28.948Z,97388.05
2019-01-08T08:51:58.592Z,97389.39
2019-01-08T08:54:28.343Z,97389.39
2019-01-08T08:56:58.083Z,97396.39
2019-01-08T08:59:27.886Z,97391.23
2019-01-08T09:01:58.131Z,97395.95
2019-01-08T09:04:27.941Z,97377.98
2019-01-08T09:06:57.704Z,97362.14
2019-01-08T09:09:27.526Z,97379.41
2019-01-08T09:11:57.342Z,97374.73
2019-01-08T09:14:26.983Z,97370.87
2019-01-08T09:16:56.709Z,97353.77
2019-01-08T09:19:27.381Z,97353.77
2019-01-08T09:21:57.183Z,97347.78
2019-01-08T09:24:26.934Z,97349.08
2019-01-08T09:26:56.641Z,97345.63
2019-01-08T09:29:26.362Z,97337.90
2019-01-08T09:31:56.202Z,97332.81
2019-01-08T09:34:26.201Z,97317.31
2019-01-08T09:36:55.983Z,97333.14
2019-01-08T09:39:25.825Z,97321.89
2019-01-08T09:41:55.635Z,97320.55
2019-01-08T09:44:25.323Z,97321.80
2019-01-08T09:46:55.229Z,97311.07
2019-01-08T09:49:26.075Z,97302.13
2019-01-08T09:51:55.922Z,97307.32
2019-01-08T09:54:25.703Z,97295.75
2019-01-08T09:56:55.441Z,97286.30
2019-01-08T09:59:25.262Z,97288.94
2019-01-08T10:01:55.061Z,97291.12
2019-01-08T10:04:24.746Z,97279.55
2019-01-08T10:06:54.585Z,97267.98
2019-01-08T10:09:24.316Z,97257.66
2019-01-08T10:11:54.113Z,97261.10
2019-01-08T10:14:23.818Z,97261.08
2019-01-08T10:16:53.705Z,97249.91
2019-01-08T10:19:23.506Z,97249.91
2019-01-08T10:21:53.345Z,97245.20
2019-01-08T10:24:23.522Z,97243.50
2019-01-08T10:26:53.280Z,97239.67
2019-01-08T10:29:23.013Z,97229.77
2019-01-08T10:31:52.813Z,97225.89
2019-01-08T10:34:22.621Z,97228.91
2019-01-08T10:36:52.424Z,97224.15
2019-01-08T10:39:22.234Z,97224.58
2019-01-08T10:41:51.927Z,97230.62
2019-01-08T10:44:21.762Z,97225.03
2019-01-08T10:46:51.524Z,97217.71
2019-01-08T10:49:21.283Z,97210.40
2019-01-08T10:51:51.094Z,97206.09
2019-01-08T10:54:20.797Z,97183.29
2019-01-08T10:56:50.506Z,97176.00
2019-01-08T10:59:20.300Z,97175.13
2019-01-08T11:01:50.194Z,97176.45
2019-01-08T11:04:19.909Z,97167.41
2019-01-08T11:06:49.833Z,97152.80
2019-01-08T11:09:19.585Z,97148.05
2019-01-08T11:11:49.355Z,97140.73
2019-01-08T11:14:19.131Z,97147.64
2019-01-08T11:16:50.515Z,97121.80
2019-01-08T11:19:20.563Z,97120.08
2019-01-08T11:21:50.183Z,97099.44
2019-01-08T11:24:20.017Z,97102.02
2019-01-08T11:26:49.887Z,97101.59
2019-01-08T11:29:19.553Z,97091.67
2019-01-08T11:31:49.410Z,97099.41
2019-01-08T11:34:19.122Z,97082.22
2019-01-08T11:36:48.834Z,97082.22
2019-01-08T11:39:18.612Z,97079.13
2019-01-08T11:41:48.310Z,97079.13
2019-01-08T11:44:18.004Z,97057.98
2019-01-08T11:46:47.822Z,97057.98
2019-01-08T11:49:17.592Z,97066.19
2019-01-08T11:51:47.288Z,97060.53
2019-01-08T11:54:17.152Z,97061.78
2019-01-08T11:56:46.955Z,97044.13
2019-01-08T11:59:16.742Z,97040.27
2019-01-08T12:01:47.304Z,97044.55
2019-01-08T12:04:16.949Z,97038.48
2019-01-08T12:06:46.762Z,97043.18
2019-01-08T12:09:16.429Z,97035.39
2019-01-08T12:11:46.160Z,97039.28
2019-01-08T12:14:15.859Z,97032.88
2019-01-08T12:16:45.670Z,97046.30
2019-01-08T12:19:15.489Z,97037.30
2019-01-08T12:21:45.260Z,97033.80
2019-01-08T12:24:15.113Z,97045.89
2019-01-08T12:26:45.137Z,97030.77
2019-01-08T12:29:15.302Z,97029.51
2019-01-08T12:31:45.521Z,97005.83
2019-01-08T12:34:15.346Z,97008.35
2019-01-08T12:36:45.102Z,97028.95
2019-01-08T12:39:15.012Z,97006.86
2019-01-08T12:41:44.838Z,97022.77
2019-01-08T12:44:14.563Z,96996.41
2019-01-08T12:46:44.393Z,96969.17
2019-01-08T12:49:14.136Z,96980.75
2019-01-08T12:51:43.938Z,96987.98
2019-01-08T12:54:13.794Z,96986.32
2019-01-08T12:56:43.579Z,96978.16
2019-01-08T12:59:14.983Z,96974.38
2019-01-08T13:01:44.813Z,96978.33
2019-01-08T13:04:14.524Z,96984.08
2019-01-08T13:06:44.309Z,96973.30
2019-01-08T13:09:14.082Z,96980.69
2019-01-08T13:11:43.825Z,96972.12
2019-01-08T13:14:13.657Z,96971.26
2019-01-08T13:16:44.046Z,96965.59
2019-01-08T13:19:13.899Z,96972.53
2019-01-08T13:21:43.664Z,96963.95
2019-01-08T13:24:13.415Z,96970.05
2019-01-08T13:26:43.396Z,96966.20
2019-01-08T13:29:13.154Z,96960.66
2019-01-08T13:31:42.963Z,96967.53
2019-01-08T13:34:12.695Z,96970.99
2019-01-08T13:36:42.415Z,96966.70
2019-01-08T13:39:12.250Z,96967.62
2019-01-08T13:41:42.076Z,96971.07
2019-01-08T13:44:13.455Z,96973.66
2019-01-08T13:46:43.195Z,96961.17
2019-01-08T13:49:12.912Z,96967.57
2019-01-08T13:51:42.693Z,96967.10
2019-01-08T13:54:12.472Z,96971.77
2019-01-08T13:56:42.313Z,96960.98
2019-01-08T13:59:12.493Z,96958.75
2019-01-08T14:01:42.260Z,96955.68
2019-01-08T14:04:11.915Z,96937.45
2019-01-08T14:06:41.695Z,96934.03
2019-01-08T14:09:11.513Z,96931.45
2019-01-08T14:11:41.311Z,96916.88
2019-01-08T14:14:11.152Z,96920.83
2019-01-08T14:16:41.019Z,96912.19
2019-01-08T14:19:10.733Z,96918.12
2019-01-08T14:21:40.701Z,96909.50
2019-01-08T14:24:10.550Z,96920.34
2019-01-08T14:26:40.343Z,96919.89
2019-01-08T14:29:10.096Z,96911.80
2019-01-08T14:31:39.910Z,96905.25
2019-01-08T14:34:09.763Z,96904.92
2019-01-08T14:36:39.905Z,96913.22
2019-01-08T14:39:09.739Z,96911.60
2019-01-08T14:41:39.541Z,96905.64
2019-01-08T14:44:09.331Z,96911.29
2019-01-08T14:46:39.139Z,96907.47
2019-01-08T14:49:08.940Z,96912.24
2019-01-08T14:51:38.743Z,96898.52
2019-01-08T14:54:08.425Z,96911.02
2019-01-08T14:56:38.264Z,96917.92
2019-01-08T14:59:08.139Z,96904.61
2019-01-08T15:01:37.857Z,96914.51
2019-01-08T15:04:07.677Z,96910.23
2019-01-08T15:06:37.474Z,96902.91
2019-01-08T15:09:07.686Z,96904.23
2019-01-08T15:11:37.405Z,96898.65
2019-01-08T15:14:07.124Z,96895.20
2019-01-08T15:16:36.934Z,96904.25
2019-01-08T15:19:06.723Z,96912.42
2019-01-08T15:21:36.422Z,96899.08
2019-01-08T15:24:06.543Z,96901.21
2019-01-08T15:26:36.453Z,96894.80
2019-01-08T15:29:06.278Z,96890.09
2019-01-08T15:31:36.145Z,96886.66
2019-01-08T15:34:05.980Z,96884.11
2019-01-08T15:36:36.802Z,96884.14
2019-01-08T15:39:07.199Z,96884.14
2019-01-08T15:41:36.981Z,96887.58
2019-01-08T15:44:14.969Z,96885.45
2019-01-08T15:46:38.155Z,96870.43
2019-01-08T15:49:07.981Z,96862.70
2019-01-08T15:51:37.702Z,96865.71
2019-01-08T15:54:07.500Z,96863.13
2019-01-08T15:56:37.305Z,96865.70
2019-01-08T15:59:07.102Z,96868.70
2019-01-08T16:01:36.937Z,96858.41
2019-01-08T16:04:06.707Z,96855.83
2019-01-08T16:06:36.554Z,96863.13
2019-01-08T16:09:07.365Z,96852.83
2019-01-08T16:11:37.167Z,96852.83
2019-01-08T16:14:06.868Z,96860.13
2019-01-08T16:16:36.685Z,96846.37
2019-01-08T16:19:06.524Z,96844.22
2019-01-08T16:21:36.418Z,96845.10
2019-01-08T16:24:06.715Z,96837.81
2019-01-08T16:26:36.695Z,96813.31
2019-01-08T16:29:06.496Z,96817.63
2019-01-08T16:31:36.345Z,96811.15
2019-01-08T16:34:06.231Z,96804.69
2019-01-08T16:36:36.074Z,96805.14
2019-01-08T16:39:07.984Z,96800.37
2019-01-08T16:41:37.817Z,96800.37
2019-01-08T16:44:07.643Z,96797.41
2019-01-08T16:46:39.101Z,96797.41
2019-01-08T16:49:09.483Z,96789.68
2019-01-08T16:51:39.773Z,96793.55
2019-01-08T16:54:09.672Z,96804.24
2019-01-08T16:56:39.507Z,96805.55
2019-01-08T16:59:09.341Z,96801.73
2019-01-08T17:01:39.177Z,96803.03
2019-01-08T17:04:09.000Z,96815.02
2019-01-08T17:06:38.843Z,96804.73
2019-01-08T17:09:09.160Z,96811.17
2019-01-08T17:11:38.946Z,96811.17
2019-01-08T17:14:08.777Z,96796.59
2019-01-08T17:16:38.605Z,96796.57
2019-01-08T17:19:08.471Z,96789.28
2019-01-08T17:21:38.309Z,96778.98
2019-01-08T17:24:08.180Z,96778.98
2019-01-08T17:26:37.994Z,96779.84
2019-01-08T17:29:07.838Z,96773.82
2019-01-08T17:31:37.666Z,96778.94
2019-01-08T17:34:07.527Z,96778.94
2019-01-08T17:36:37.517Z,96781.11
2019-01-08T17:39:08.033Z,96776.80
2019-01-08T17:41:38.005Z,96766.95
2019-01-08T17:44:07.837Z,96766.54
2019-01-08T17:46:37.721Z,96772.96
2019-01-08T17:49:07.707Z,96772.96
2019-01-08T17:51:37.695Z,96764.39
2019-01-08T17:54:07.581Z,96760.55
2019-01-08T17:56:37.400Z,96759.28
2019-01-08T17:59:09.719Z,96763.14
2019-01-08T18:01:42.102Z,96741.66
2019-01-08T18:04:12.862Z,96763.98
2019-01-08T18:06:42.671Z,96752.82
2019-01-08T18:09:12.811Z,96758.80
2019-01-08T18:11:42.617Z,96758.80
2019-01-08T18:14:12.451Z,96757.92
2019-01-08T18:16:42.367Z,96757.02
2019-01-08T18:19:12.208Z,96733.90
2019-01-08T18:21:42.022Z,96739.02
2019-01-08T18:24:12.016Z,96736.45
2019-01-08T18:26:43.512Z,96727.88
2019-01-08T18:29:13.340Z,96719.75
2019-01-08T18:31:43.262Z,96728.74
2019-01-08T18:34:13.060Z,96727.42
2019-01-08T18:36:42.952Z,96726.96
2019-01-08T18:39:13.074Z,96725.66
2019-01-08T18:41:42.926Z,96733.77
2019-01-08T18:44:12.902Z,96730.34
2019-01-08T18:46:43.047Z,96725.66
2019-01-08T18:49:12.893Z,96717.09
2019-01-08T18:51:42.837Z,96721.41
2019-01-08T18:54:12.684Z,96724.06
2019-01-08T18:56:42.567Z,96718.08
2019-01-08T18:59:15.480Z,96718.93
2019-01-08T19:01:45.320Z,96707.75
2019-01-08T19:04:15.148Z,96705.62
2019-01-08T19:06:44.991Z,96706.00
2019-01-08T19:09:26.705Z,96706.39
2019-01-08T19:11:59.366Z,96705.09
2019-01-08T19:14:32.287Z,96703.77
2019-01-08T19:17:02.303Z,96705.06
2019-01-08T19:19:32.515Z,96701.19
2019-01-08T19:22:02.385Z,96702.47
2019-01-08T19:24:32.371Z,96690.89
2019-01-08T19:27:02.358Z,96691.31
2019-01-08T19:29:32.226Z,96686.16
2019-01-08T19:32:02.048Z,96681.45
2019-01-08T19:34:32.169Z,96684.87
2019-01-08T19:37:02.057Z,96686.53
2019-01-08T19:39:31.902Z,96686.92
2019-01-08T19:42:02.020Z,96680.54
2019-01-08T19:44:31.871Z,96689.09
2019-01-08T19:47:01.689Z,96686.34
2019-01-08T19:49:31.996Z,96685.05
2019-01-08T19:52:04.107Z,96682.48
2019-01-08T19:54:36.475Z,96691.83
2019-01-08T19:57:08.365Z,96678.50
2019-01-08T19:59:38.285Z,96668.17
2019-01-08T20:02:08.134Z,96669.46
2019-01-08T20:04:37.970Z,96656.19
2019-01-08T20:07:07.870Z,96657.47
2019-01-08T20:09:40.292Z,96652.75
2019-01-08T20:12:10.886Z,96644.97
2019-01-08T20:14:40.763Z,96639.38
2019-01-08T20:17:10.605Z,96635.50
2019-01-08T20:19:40.450Z,96638.47
2019-01-08T20:22:10.718Z,96636.33
2019-01-08T20:24:42.198Z,96632.48
2019-01-08T20:27:12.333Z,96623.06
2019-01-08T20:29:42.232Z,96634.19
2019-01-08T20:32:12.050Z,96630.73
2019-01-08T20:34:43.822Z,96624.78
2019-01-08T20:37:14.037Z,96630.80
2019-01-08T20:39:47.652Z,96629.94
2019-01-08T20:42:20.725Z,96621.88
2019-01-08T20:44:50.710Z,96620.16
2019-01-08T20:47:20.552Z,96620.55
2019-01-08T20:49:50.315Z,96617.98
2019-01-08T20:52:20.152Z,96611.97
2019-01-08T20:54:49.982Z,96612.86
2019-01-08T20:57:20.712Z,96602.14
2019-01-08T20:59:50.600Z,96597.44
2019-01-08T21:02:20.932Z,96595.30
2019-01-08T21:04:50.714Z,96602.94
2019-01-08T21:07:20.600Z,96588.02
2019-01-08T21:09:50.455Z,96584.98
2019-01-08T21:12:20.300Z,96590.94
2019-01-08T21:14:50.167Z,96584.92
2019-01-08T21:17:20.322Z,96579.36
2019-01-08T21:19:50.182Z,96581.47
2019-01-08T21:22:20.099Z,96578.47
2019-01-08T21:24:49.936Z,96573.34
2019-01-08T21:27:19.752Z,96571.64
2019-01-08T21:29:49.596Z,96570.78
2019-01-08T21:32:19.416Z,96565.22
2019-01-08T21:34:49.277Z,96572.49
2019-01-08T21:37:19.573Z,96574.62
2019-01-08T21:39:50.407Z,96581.02
2019-01-08T21:42:20.308Z,96571.61
2019-01-08T21:44:50.137Z,96564.73
2019-01-08T21:47:19.924Z,96573.74
2019-01-08T21:49:49.784Z,96563.91
2019-01-08T21:52:19.565Z,96578.02
2019-01-08T21:54:49.387Z,96580.55
2019-01-08T21:57:19.232Z,96580.52
2019-01-08T21:59:49.052Z,96569.86
2019-01-08T22:02:18.823Z,96577.52
2019-01-08T22:04:53.266Z,96577.48
2019-01-08T22:07:21.665Z,96575.73
2019-01-08T22:09:54.052Z,96586.17
2019-01-08T22:12:23.856Z,96579.81
2019-01-08T22:14:56.253Z,96581.13
2019-01-08T22:17:29.197Z,96590.51
2019-01-08T22:19:58.985Z,96575.12
2019-01-08T22:22:28.800Z,96571.72
2019-01-08T22:25:01.108Z,96574.31
2019-01-08T22:27:30.902Z,96573.08
2019-01-08T22:30:04.624Z,96567.14
2019-01-08T22:32:35.600Z,96564.13
2019-01-08T22:35:05.885Z,96557.73
2019-01-08T22:37:40.327Z,96559.04
2019-01-08T22:40:12.788Z,96559.00
2019-01-08T22:42:42.637Z,96541.88
2019-01-08T22:45:12.376Z,96549.16
2019-01-08T22:47:42.190Z,96532.87
2019-01-08T22:50:12.044Z,96535.89
2019-01-08T22:52:41.830Z,96527.77
2019-01-08T22:55:11.594Z,96532.47
2019-01-08T22:57:41.317Z,96542.30
2019-01-08T23:00:15.409Z,96536.73
2019-01-08T23:02:48.269Z,96526.48
2019-01-08T23:05:17.961Z,96530.37
2019-01-08T23:07:47.603Z,96535.08
2019-01-08T23:10:17.478Z,96528.22
2019-01-08T23:12:47.165Z,96528.66
2019-01-08T23:15:16.884Z,96535.92
2019-01-08T23:17:46.635Z,96532.95
2019-01-08T23:20:16.403Z,96522.23
2019-01-08T23:22:46.644Z,96517.11
2019-01-08T23:25:16.523Z,96518.41
2019-01-08T23:27:46.284Z,96515.40
2019-01-08T23:30:15.983Z,96512.83
2019-01-08T23:32:45.798Z,96517.10
2019-01-08T23:35:19.636Z,96520.12
2019-01-08T23:37:47.115Z,96513.67
2019-01-08T23:40:16.937Z,96514.98
2019-01-08T23:42:46.616Z,96522.23
2019-01-08T23:45:16.349Z,96519.69
2019-01-08T23:47:46.180Z,96512.38
2019-01-08T23:50:15.907Z,96505.96
2019-01-08T23:53:07.645Z,96515.41
2019-01-08T23:55:41.717Z,96509.38
2019-01-08T23:58:15.994Z,96506.82
